createdAt,value
2022-11-07T00:02:12.608Z,10.72
2022-11-07T00:04:42.693Z,10.75
2022-11-07T00:07:11.469Z,10.76
2022-11-07T00:09:39.733Z,10.77
2022-11-07T00:12:08.971Z,10.78
2022-11-07T00:14:37.239Z,10.78
2022-11-07T00:17:05.853Z,10.80
2022-11-07T00:19:34.084Z,10.80
2022-11-07T00:22:03.690Z,10.83
2022-11-07T00:24:31.946Z,10.83
2022-11-07T00:27:00.249Z,10.83
2022-11-07T00:29:28.591Z,10.86
2022-11-07T00:31:56.889Z,10.87
2022-11-07T00:34:25.114Z,10.88
2022-11-07T00:36:53.359Z,10.88
2022-11-07T00:39:23.005Z,10.87
2022-11-07T00:41:51.348Z,10.90
2022-11-07T00:44:19.622Z,10.91
2022-11-07T00:46:47.859Z,10.91
2022-11-07T00:49:16.172Z,10.94
2022-11-07T00:51:44.410Z,10.96
2022-11-07T00:54:12.856Z,10.96
2022-11-07T00:56:42.479Z,10.96
2022-11-07T00:59:10.803Z,10.98
2022-11-07T01:01:39.178Z,10.98
2022-11-07T01:04:24.718Z,11.00
2022-11-07T01:06:53.310Z,11.01
2022-11-07T01:09:23.356Z,11.01
2022-11-07T01:11:52.998Z,11.02
2022-11-07T01:14:23.414Z,11.01
2022-11-07T01:16:52.475Z,11.04
2022-11-07T01:19:21.485Z,11.04
2022-11-07T01:21:50.332Z,11.05
2022-11-07T01:24:19.446Z,11.06
2022-11-07T01:26:48.927Z,11.07
2022-11-07T01:29:19.830Z,11.08
2022-11-07T01:31:48.576Z,11.09
2022-11-07T01:34:17.764Z,11.08
2022-11-07T01:36:46.211Z,11.09
2022-11-07T01:39:14.609Z,11.10
2022-11-07T01:41:43.266Z,11.10
2022-11-07T01:44:54.730Z,11.09
2022-11-07T01:47:26.506Z,11.08
2022-11-07T01:49:55.197Z,11.08
2022-11-07T01:52:27.946Z,11.09
2022-11-07T01:55:03.095Z,11.09
2022-11-07T01:57:36.261Z,11.10
2022-11-07T02:00:09.912Z,11.08
2022-11-07T02:02:39.298Z,11.08
2022-11-07T02:05:10.324Z,11.08
2022-11-07T02:07:40.452Z,11.05
2022-11-07T02:10:10.153Z,11.03
2022-11-07T02:12:38.999Z,11.02
2022-11-07T02:15:11.700Z,11.00
2022-11-07T02:17:40.416Z,10.99
2022-11-07T02:20:10.022Z,10.97
2022-11-07T02:22:43.652Z,10.96
2022-11-07T02:25:16.722Z,10.93
2022-11-07T02:27:47.823Z,10.90
2022-11-07T02:30:19.910Z,10.89
2022-11-07T02:32:48.777Z,10.87
2022-11-07T02:35:39.955Z,10.84
2022-11-07T02:38:13.348Z,10.82
2022-11-07T02:40:44.739Z,10.80
2022-11-07T02:43:15.028Z,10.80
2022-11-07T02:45:46.425Z,10.78
2022-11-07T02:48:14.664Z,10.79
2022-11-07T02:50:43.013Z,10.77
2022-11-07T02:53:11.647Z,10.76
2022-11-07T02:55:40.301Z,10.76
2022-11-07T02:58:10.011Z,10.76
2022-11-07T03:00:38.343Z,10.74
2022-11-07T03:03:06.646Z,10.75
2022-11-07T03:05:34.879Z,10.75
2022-11-07T03:08:03.156Z,10.75
2022-11-07T03:10:31.422Z,10.74
2022-11-07T03:12:59.657Z,10.75
2022-11-07T03:15:29.347Z,10.78
2022-11-07T03:18:00.052Z,10.80
2022-11-07T03:20:28.410Z,10.79
2022-11-07T03:22:56.702Z,10.81
2022-11-07T03:25:24.925Z,10.80
2022-11-07T03:27:53.208Z,10.81
2022-11-07T03:30:21.472Z,10.81
2022-11-07T03:32:53.289Z,10.81
2022-11-07T03:35:21.621Z,10.82
2022-11-07T03:37:51.089Z,10.82
2022-11-07T03:40:19.552Z,10.84
2022-11-07T03:42:47.785Z,10.86
2022-11-07T03:45:17.786Z,10.87
2022-11-07T03:47:47.714Z,10.88
2022-11-07T03:50:19.926Z,10.90
2022-11-07T03:52:48.329Z,10.92
2022-11-07T03:55:18.385Z,10.92
2022-11-07T03:57:47.744Z,10.93
2022-11-07T04:00:17.726Z,10.95
2022-11-07T04:02:46.388Z,10.96
2022-11-07T04:05:16.349Z,10.97
2022-11-07T04:07:44.667Z,10.97
2022-11-07T04:10:12.931Z,10.96
2022-11-07T04:12:58.606Z,10.97
2022-11-07T04:15:44.541Z,10.95
2022-11-07T04:18:12.765Z,10.95
2022-11-07T04:20:42.380Z,10.93
2022-11-07T04:23:10.664Z,10.93
2022-11-07T04:25:56.208Z,10.93
2022-11-07T04:28:24.440Z,10.91
2022-11-07T04:30:52.691Z,10.88
2022-11-07T04:33:20.935Z,10.86
2022-11-07T04:35:50.544Z,10.84
2022-11-07T04:38:18.818Z,10.81
2022-11-07T04:40:53.268Z,10.80
2022-11-07T04:43:21.550Z,10.76
2022-11-07T04:45:49.811Z,10.73
2022-11-07T04:48:18.392Z,10.71
2022-11-07T04:50:47.265Z,10.67
2022-11-07T04:53:19.185Z,10.65
2022-11-07T04:55:47.819Z,10.64
2022-11-07T04:58:17.062Z,10.59
2022-11-07T05:00:45.333Z,10.59
2022-11-07T05:03:13.953Z,10.56
2022-11-07T05:05:42.403Z,10.55
2022-11-07T05:08:10.684Z,10.54
2022-11-07T05:10:40.605Z,10.52
2022-11-07T05:13:08.850Z,10.51
2022-11-07T05:15:37.699Z,10.48
2022-11-07T05:18:06.321Z,10.44
2022-11-07T05:20:36.835Z,10.40
2022-11-07T05:23:16.004Z,10.37
2022-11-07T05:25:48.837Z,10.33
2022-11-07T05:28:25.745Z,10.31
2022-11-07T05:31:00.108Z,10.22
2022-11-07T05:33:29.779Z,10.17
2022-11-07T05:35:58.144Z,10.15
2022-11-07T05:38:26.426Z,10.15
2022-11-07T05:40:56.265Z,10.15
2022-11-07T05:43:24.684Z,10.14
2022-11-07T05:45:52.899Z,10.12
2022-11-07T05:48:21.168Z,10.11
2022-11-07T05:50:49.463Z,10.11
2022-11-07T05:53:20.974Z,10.08
2022-11-07T05:55:49.673Z,10.04
2022-11-07T05:58:19.974Z,9.99
2022-11-07T06:00:48.831Z,9.93
2022-11-07T06:03:18.532Z,9.89
2022-11-07T06:05:47.731Z,9.88
2022-11-07T06:08:16.534Z,9.82
2022-11-07T06:10:45.230Z,9.78
2022-11-07T06:13:15.614Z,9.75
2022-11-07T06:15:46.766Z,9.74
2022-11-07T06:18:17.971Z,9.76
2022-11-07T06:20:46.836Z,9.78
2022-11-07T06:23:15.674Z,9.79
2022-11-07T06:25:44.546Z,9.81
2022-11-07T06:28:16.028Z,9.84
2022-11-07T06:30:46.045Z,9.87
2022-11-07T06:33:17.077Z,9.89
2022-11-07T06:35:46.805Z,9.91
2022-11-07T06:38:16.373Z,9.93
2022-11-07T06:40:45.594Z,9.97
2022-11-07T06:43:16.306Z,9.99
2022-11-07T06:45:47.642Z,10.01
2022-11-07T06:48:16.249Z,10.04
2022-11-07T06:50:44.580Z,10.07
2022-11-07T06:53:15.090Z,10.11
2022-11-07T06:55:43.739Z,10.15
2022-11-07T06:58:12.168Z,10.17
2022-11-07T07:00:40.597Z,10.22
2022-11-07T07:03:11.616Z,10.26
2022-11-07T07:05:40.097Z,10.31
2022-11-07T07:08:09.337Z,10.36
2022-11-07T07:10:40.958Z,10.39
2022-11-07T07:13:09.240Z,10.43
2022-11-07T07:15:50.422Z,10.47
2022-11-07T07:18:21.679Z,10.50
2022-11-07T07:20:51.063Z,10.55
2022-11-07T07:23:21.667Z,10.58
2022-11-07T07:25:50.199Z,10.62
2022-11-07T07:28:18.448Z,10.66
2022-11-07T07:30:51.545Z,10.70
2022-11-07T07:33:22.089Z,10.73
2022-11-07T07:35:50.345Z,10.78
2022-11-07T07:38:18.702Z,10.83
2022-11-07T07:40:46.959Z,10.87
2022-11-07T07:43:15.830Z,10.90
2022-11-07T07:45:44.472Z,10.93
2022-11-07T07:48:12.832Z,10.96
2022-11-07T07:50:42.491Z,10.99
2022-11-07T07:53:10.953Z,11.03
2022-11-07T07:55:39.365Z,11.06
2022-11-07T07:58:07.663Z,11.10
2022-11-07T08:00:36.251Z,11.15
2022-11-07T08:03:06.334Z,11.18
2022-11-07T08:05:34.648Z,11.22
2022-11-07T08:08:04.530Z,11.25
2022-11-07T08:10:42.434Z,11.29
2022-11-07T08:13:11.379Z,11.36
2022-11-07T08:15:40.140Z,11.40
2022-11-07T08:18:08.512Z,11.51
2022-11-07T08:20:36.794Z,11.58
2022-11-07T08:23:15.751Z,11.66
2022-11-07T08:25:50.868Z,11.73
2022-11-07T08:28:20.385Z,11.80
2022-11-07T08:30:56.799Z,11.88
2022-11-07T08:33:25.097Z,11.95
2022-11-07T08:35:55.896Z,12.01
2022-11-07T08:38:25.680Z,12.08
2022-11-07T08:40:54.313Z,12.14
2022-11-07T08:43:22.781Z,12.20
2022-11-07T08:45:51.589Z,12.27
2022-11-07T08:48:20.148Z,12.32
2022-11-07T08:50:53.811Z,12.40
2022-11-07T08:53:22.663Z,12.49
2022-11-07T08:55:52.483Z,12.60
2022-11-07T08:58:23.572Z,12.69
2022-11-07T09:00:54.235Z,12.80
2022-11-07T09:06:10.924Z,12.99
2022-11-07T09:08:40.778Z,13.08
2022-11-07T09:11:10.823Z,13.16
2022-11-07T09:13:39.339Z,13.27
2022-11-07T09:16:08.317Z,13.36
2022-11-07T09:18:36.627Z,13.44
2022-11-07T09:21:05.090Z,13.51
2022-11-07T09:23:33.407Z,13.63
2022-11-07T09:26:02.209Z,13.81
2022-11-07T09:28:32.167Z,14.00
2022-11-07T09:31:01.924Z,14.18
2022-11-07T09:33:30.708Z,14.38
2022-11-07T09:36:00.793Z,14.53
2022-11-07T09:38:29.514Z,14.71
2022-11-07T09:41:06.674Z,14.91
2022-11-07T09:44:06.060Z,15.12
2022-11-07T09:46:51.220Z,15.34
2022-11-07T09:49:23.255Z,15.56
2022-11-07T09:51:57.582Z,15.78
2022-11-07T09:54:30.822Z,15.95
2022-11-07T09:57:00.962Z,16.10
2022-11-07T09:59:37.978Z,16.23
2022-11-07T10:02:16.611Z,16.34
2022-11-07T10:04:45.834Z,16.45
2022-11-07T10:07:27.245Z,16.48
2022-11-07T10:10:03.680Z,16.51
2022-11-07T10:12:57.602Z,16.54
2022-11-07T10:15:34.876Z,16.53
2022-11-07T10:18:16.263Z,16.56
2022-11-07T10:21:16.012Z,16.62
2022-11-07T10:24:06.351Z,16.69
2022-11-07T10:26:35.044Z,16.80
2022-11-07T10:29:13.538Z,16.88
2022-11-07T10:31:49.033Z,16.97
2022-11-07T10:34:24.046Z,17.07
2022-11-07T10:36:52.273Z,17.16
2022-11-07T10:39:21.350Z,17.24
2022-11-07T10:42:00.857Z,17.29
2022-11-07T10:44:30.985Z,17.34
2022-11-07T10:47:02.209Z,17.44
2022-11-07T10:49:32.928Z,17.55
2022-11-07T10:52:09.645Z,17.65
2022-11-07T10:54:40.205Z,17.79
2022-11-07T10:57:14.227Z,17.94
2022-11-07T10:59:55.072Z,18.08
2022-11-07T11:02:27.590Z,18.23
2022-11-07T11:04:59.157Z,18.38
2022-11-07T11:07:35.209Z,18.51
2022-11-07T11:10:04.790Z,18.66
2022-11-07T11:12:35.322Z,18.76
2022-11-07T11:15:18.205Z,18.87
2022-11-07T11:17:49.025Z,18.96
2022-11-07T11:20:33.396Z,19.05
2022-11-07T11:23:03.078Z,19.12
2022-11-07T11:25:31.454Z,19.19
2022-11-07T11:28:07.558Z,19.26
2022-11-07T11:30:38.153Z,19.30
2022-11-07T11:33:15.415Z,19.33
2022-11-07T11:35:49.093Z,19.34
2022-11-07T11:38:22.261Z,19.36
2022-11-07T11:41:04.788Z,19.36
2022-11-07T11:43:46.751Z,19.32
2022-11-07T11:46:23.212Z,19.31
2022-11-07T11:48:58.283Z,19.29
2022-11-07T11:51:40.105Z,19.23
2022-11-07T11:54:11.628Z,19.24
2022-11-07T11:56:53.197Z,19.20
2022-11-07T12:00:03.466Z,19.17
2022-11-07T12:03:20.752Z,19.13
2022-11-07T12:06:22.524Z,19.11
2022-11-07T12:09:18.235Z,19.13
2022-11-07T12:12:01.161Z,19.13
2022-11-07T12:14:57.613Z,19.15
2022-11-07T12:17:34.379Z,19.17
2022-11-07T12:20:19.450Z,19.18
2022-11-07T12:23:06.257Z,19.20
2022-11-07T12:25:42.778Z,19.24
2022-11-07T12:28:32.540Z,19.30
2022-11-07T12:31:25.876Z,19.38
2022-11-07T12:34:08.112Z,19.45
2022-11-07T12:36:54.932Z,19.55
2022-11-07T12:39:51.370Z,19.60
2022-11-07T12:42:35.580Z,19.71
2022-11-07T12:45:14.963Z,19.78
2022-11-07T12:48:13.073Z,19.80
2022-11-07T12:50:50.277Z,19.84
2022-11-07T12:53:31.950Z,19.88
2022-11-07T12:56:08.335Z,19.89
2022-11-07T12:58:39.991Z,19.90
2022-11-07T13:01:09.365Z,19.90
2022-11-07T13:04:07.338Z,19.83
2022-11-07T13:06:41.205Z,19.79
2022-11-07T13:09:22.600Z,19.75
2022-11-07T13:11:58.558Z,19.69
2022-11-07T13:14:32.318Z,19.65
2022-11-07T13:17:21.424Z,19.60
2022-11-07T13:20:02.279Z,19.56
2022-11-07T13:22:36.024Z,19.53
2022-11-07T13:25:28.462Z,19.46
2022-11-07T13:28:24.018Z,19.41
2022-11-07T13:31:01.112Z,19.36
2022-11-07T13:33:34.542Z,19.31
2022-11-07T13:36:16.476Z,19.25
2022-11-07T13:38:51.453Z,19.19
2022-11-07T13:41:20.969Z,19.14
2022-11-07T13:43:57.138Z,19.09
2022-11-07T13:46:32.310Z,19.01
2022-11-07T13:49:07.409Z,18.93
2022-11-07T13:51:41.133Z,18.87
2022-11-07T13:54:17.610Z,18.80
2022-11-07T13:56:54.725Z,18.74
2022-11-07T13:59:39.053Z,18.67
2022-11-07T14:02:08.176Z,18.60
2022-11-07T14:04:44.526Z,18.58
2022-11-07T14:07:26.589Z,18.50
2022-11-07T14:10:00.205Z,18.45
2022-11-07T14:12:29.895Z,18.40
2022-11-07T14:15:01.610Z,18.35
2022-11-07T14:17:35.672Z,18.30
2022-11-07T14:20:13.930Z,18.26
2022-11-07T14:22:51.630Z,18.20
2022-11-07T14:25:26.216Z,18.15
2022-11-07T14:27:54.693Z,18.11
2022-11-07T14:30:26.949Z,18.09
2022-11-07T14:32:58.444Z,18.08
2022-11-07T14:35:34.405Z,18.04
2022-11-07T14:38:17.066Z,18.01
2022-11-07T14:40:45.789Z,18.01
2022-11-07T14:43:17.239Z,17.97
2022-11-07T14:46:11.393Z,17.97
2022-11-07T14:48:37.460Z,17.95
2022-11-07T14:51:06.676Z,17.94
2022-11-07T14:53:49.860Z,17.92
2022-11-07T14:56:21.738Z,17.91
2022-11-07T14:58:50.275Z,17.90
2022-11-07T15:01:29.458Z,17.87
2022-11-07T15:04:01.697Z,17.85
2022-11-07T15:06:41.707Z,17.83
2022-11-07T15:09:12.130Z,17.83
2022-11-07T15:11:42.715Z,17.82
2022-11-07T15:14:24.198Z,17.79
2022-11-07T15:16:55.287Z,17.76
2022-11-07T15:19:24.875Z,17.74
2022-11-07T15:21:56.401Z,17.72
2022-11-07T15:24:39.138Z,17.66
2022-11-07T15:27:20.105Z,17.61
2022-11-07T15:29:55.295Z,17.57
2022-11-07T15:32:27.970Z,17.54
2022-11-07T15:35:12.116Z,17.50
2022-11-07T15:37:54.379Z,17.40
2022-11-07T15:40:23.789Z,17.34
2022-11-07T15:42:52.439Z,17.28
2022-11-07T15:45:22.598Z,17.20
2022-11-07T15:47:52.989Z,17.12
2022-11-07T15:50:24.638Z,17.02
2022-11-07T15:52:54.307Z,16.98
2022-11-07T15:55:24.258Z,16.92
2022-11-07T15:57:55.351Z,16.86
2022-11-07T16:00:25.962Z,16.78
2022-11-07T16:02:55.689Z,16.73
2022-11-07T16:05:24.208Z,16.68
2022-11-07T16:07:52.537Z,16.61
2022-11-07T16:10:24.894Z,16.55
2022-11-07T16:12:53.709Z,16.50
2022-11-07T16:15:25.001Z,16.45
2022-11-07T16:17:53.280Z,16.38
2022-11-07T16:20:24.599Z,16.31
2022-11-07T16:22:53.328Z,16.24
2022-11-07T16:25:25.792Z,16.14
2022-11-07T16:27:56.249Z,16.05
2022-11-07T16:30:24.479Z,15.97
2022-11-07T16:32:52.811Z,15.88
2022-11-07T16:35:22.729Z,15.78
2022-11-07T16:37:51.031Z,15.70
2022-11-07T16:40:20.912Z,15.64
2022-11-07T16:42:49.177Z,15.59
2022-11-07T16:45:20.511Z,15.55
2022-11-07T16:47:49.434Z,15.51
2022-11-07T16:50:19.166Z,15.49
2022-11-07T16:52:48.823Z,15.46
2022-11-07T16:55:18.925Z,15.42
2022-11-07T16:57:48.524Z,15.38
2022-11-07T17:00:20.545Z,15.36
2022-11-07T17:02:48.986Z,15.31
2022-11-07T17:05:17.734Z,15.28
2022-11-07T17:07:46.105Z,15.22
2022-11-07T17:10:18.190Z,15.17
2022-11-07T17:12:46.658Z,15.11
2022-11-07T17:15:15.044Z,15.01
2022-11-07T17:17:43.493Z,14.93
2022-11-07T17:20:49.937Z,14.76
2022-11-07T17:23:10.345Z,14.76
2022-11-07T17:25:40.546Z,14.70
2022-11-07T17:28:09.083Z,14.64
2022-11-07T17:30:37.487Z,14.61
2022-11-07T17:33:06.248Z,14.59
2022-11-07T17:35:35.152Z,14.56
2022-11-07T17:38:04.028Z,14.52
2022-11-07T17:40:35.000Z,14.49
2022-11-07T17:43:04.684Z,14.47
2022-11-07T17:45:33.049Z,14.43
2022-11-07T17:48:01.273Z,14.39
2022-11-07T17:50:29.731Z,14.35
2022-11-07T17:52:58.211Z,14.31
2022-11-07T17:55:26.568Z,14.28
2022-11-07T17:57:55.147Z,14.22
2022-11-07T18:00:27.808Z,14.16
2022-11-07T18:02:56.469Z,14.11
2022-11-07T18:05:30.305Z,14.04
2022-11-07T18:08:01.538Z,13.97
2022-11-07T18:10:30.492Z,13.91
2022-11-07T18:12:58.910Z,13.85
2022-11-07T18:15:28.661Z,13.80
2022-11-07T18:17:56.973Z,13.74
2022-11-07T18:20:25.999Z,13.70
2022-11-07T18:22:54.316Z,13.66
2022-11-07T18:25:22.630Z,13.61
2022-11-07T18:27:50.853Z,13.56
2022-11-07T18:30:19.284Z,13.52
2022-11-07T18:32:48.913Z,13.47
2022-11-07T18:35:17.394Z,13.43
2022-11-07T18:37:45.668Z,13.41
2022-11-07T18:40:14.576Z,13.39
2022-11-07T18:42:47.140Z,13.36
2022-11-07T18:45:15.512Z,13.34
2022-11-07T18:47:43.891Z,13.30
2022-11-07T18:50:13.810Z,13.29
2022-11-07T18:52:42.106Z,13.27
2022-11-07T18:55:27.618Z,13.22
2022-11-07T18:57:56.136Z,13.18
2022-11-07T19:00:24.500Z,13.11
2022-11-07T19:02:53.599Z,13.11
2022-11-07T19:05:23.327Z,13.08
2022-11-07T19:07:51.760Z,13.04
2022-11-07T19:10:20.811Z,13.01
2022-11-07T19:12:49.044Z,12.99
2022-11-07T19:15:17.372Z,12.96
2022-11-07T19:17:45.675Z,12.92
2022-11-07T19:20:14.025Z,12.90
2022-11-07T19:22:43.699Z,12.87
2022-11-07T19:25:11.981Z,12.85
2022-11-07T19:27:41.254Z,12.81
2022-11-07T19:30:11.760Z,12.78
2022-11-07T19:32:40.192Z,12.74
2022-11-07T19:35:08.982Z,12.71
2022-11-07T19:37:38.333Z,12.67
2022-11-07T19:40:10.793Z,12.66
2022-11-07T19:42:39.078Z,12.60
2022-11-07T19:45:08.426Z,12.60
2022-11-07T19:47:36.703Z,12.56
2022-11-07T19:50:05.694Z,12.55
2022-11-07T19:52:34.466Z,12.51
2022-11-07T19:55:02.811Z,12.48
2022-11-07T19:57:32.776Z,12.45
2022-11-07T20:00:01.138Z,12.42
2022-11-07T20:02:35.473Z,12.39
2022-11-07T20:05:05.373Z,12.37
2022-11-07T20:07:33.692Z,12.33
2022-11-07T20:10:02.089Z,12.30
2022-11-07T20:12:31.723Z,12.26
2022-11-07T20:15:00.520Z,12.22
2022-11-07T20:17:28.733Z,12.21
2022-11-07T20:20:01.133Z,12.18
2022-11-07T20:22:32.152Z,12.14
2022-11-07T20:25:00.416Z,12.13
2022-11-07T20:27:28.855Z,12.09
2022-11-07T20:29:59.424Z,12.06
2022-11-07T20:32:28.039Z,12.03
2022-11-07T20:34:56.510Z,12.00
2022-11-07T20:37:24.838Z,11.96
2022-11-07T20:39:53.148Z,11.95
2022-11-07T20:42:21.466Z,11.91
2022-11-07T20:44:51.566Z,11.88
2022-11-07T20:47:21.650Z,11.83
2022-11-07T20:49:50.108Z,11.78
2022-11-07T20:52:18.429Z,11.76
2022-11-07T20:54:46.738Z,11.73
2022-11-07T20:57:15.122Z,11.71
2022-11-07T20:59:43.976Z,11.68
2022-11-07T21:02:13.863Z,11.64
2022-11-07T21:05:11.327Z,11.60
2022-11-07T21:07:32.046Z,11.57
2022-11-07T21:10:00.373Z,11.54
2022-11-07T21:12:28.741Z,11.51
2022-11-07T21:14:57.135Z,11.48
2022-11-07T21:17:25.476Z,11.44
2022-11-07T21:19:55.561Z,11.40
2022-11-07T21:22:28.996Z,11.38
2022-11-07T21:24:57.674Z,11.34
2022-11-07T21:27:25.969Z,11.31
2022-11-07T21:29:54.349Z,11.29
2022-11-07T21:32:22.676Z,11.25
2022-11-07T21:34:50.955Z,11.23
2022-11-07T21:37:20.637Z,11.20
2022-11-07T21:39:49.018Z,11.18
2022-11-07T21:42:18.206Z,11.13
2022-11-07T21:44:46.513Z,11.10
2022-11-07T21:47:14.825Z,11.05
2022-11-07T21:49:43.191Z,11.04
2022-11-07T21:52:11.903Z,11.00
2022-11-07T21:54:41.627Z,10.98
2022-11-07T21:57:09.946Z,10.93
2022-11-07T21:59:38.355Z,10.91
2022-11-07T22:02:06.758Z,10.87
2022-11-07T22:04:35.149Z,10.84
2022-11-07T22:07:03.516Z,10.80
2022-11-07T22:09:31.865Z,10.80
2022-11-07T22:12:01.592Z,10.78
2022-11-07T22:14:29.979Z,10.74
2022-11-07T22:16:58.286Z,10.72
2022-11-07T22:19:27.187Z,10.69
2022-11-07T22:21:55.553Z,10.66
2022-11-07T22:24:27.112Z,10.65
2022-11-07T22:26:57.187Z,10.62
2022-11-07T22:29:27.158Z,10.59
2022-11-07T22:31:55.497Z,10.56
2022-11-07T22:34:23.798Z,10.53
2022-11-07T22:36:52.125Z,10.52
2022-11-07T22:39:20.645Z,10.50
2022-11-07T22:41:49.189Z,10.47
2022-11-07T22:44:17.508Z,10.46
2022-11-07T22:46:47.225Z,10.43
2022-11-07T22:49:15.527Z,10.41
2022-11-07T22:51:44.218Z,10.38
2022-11-07T22:54:14.281Z,10.36
2022-11-07T22:56:42.613Z,10.35
2022-11-07T22:59:13.141Z,10.32
2022-11-07T23:01:44.000Z,10.30
2022-11-07T23:04:18.069Z,10.28
2022-11-07T23:06:46.833Z,10.26
2022-11-07T23:09:16.623Z,10.24
2022-11-07T23:11:46.934Z,10.20
2022-11-07T23:14:18.150Z,10.18
2022-11-07T23:16:49.291Z,10.15
2022-11-07T23:19:23.364Z,10.13
2022-11-07T23:21:52.621Z,10.11
2022-11-07T23:24:21.261Z,10.08
2022-11-07T23:26:49.877Z,10.06
2022-11-07T23:29:20.573Z,10.04
2022-11-07T23:31:50.970Z,10.02
2022-11-07T23:34:22.592Z,10.00
2022-11-07T23:36:52.473Z,9.98
2022-11-07T23:39:22.833Z,9.96
2022-11-07T23:41:51.135Z,9.93
2022-11-07T23:44:19.582Z,9.92
2022-11-07T23:47:05.657Z,9.89
2022-11-07T23:49:52.722Z,9.87
2022-11-07T23:52:21.091Z,9.83
2022-11-07T23:55:07.049Z,9.82
2022-11-07T23:57:57.140Z,9.78
